sensor_id;sensor_type;location;lat;lon;timestamp;temperature;humidity
4411;DHT22;2218;51.408;7.208;2023-08-20T00:01:06;23.70;65.40
4411;DHT22;2218;51.408;7.208;2023-08-20T00:03:36;23.70;65.50
4411;DHT22;2218;51.408;7.208;2023-08-20T00:06:04;23.70;65.40
4411;DHT22;2218;51.408;7.208;2023-08-20T00:08:31;23.70;65.50
4411;DHT22;2218;51.408;7.208;2023-08-20T00:10:58;23.70;65.40
4411;DHT22;2218;51.408;7.208;2023-08-20T00:13:25;23.70;65.40
4411;DHT22;2218;51.408;7.208;2023-08-20T00:15:53;23.70;65.50
4411;DHT22;2218;51.408;7.208;2023-08-20T00:18:22;23.70;65.40
4411;DHT22;2218;51.408;7.208;2023-08-20T00:20:50;23.70;65.50
4411;DHT22;2218;51.408;7.208;2023-08-20T00:23:17;23.70;65.40
4411;DHT22;2218;51.408;7.208;2023-08-20T00:25:45;23.70;65.50
4411;DHT22;2218;51.408;7.208;2023-08-20T00:28:12;23.70;65.40
4411;DHT22;2218;51.408;7.208;2023-08-20T00:30:41;23.70;65.40
4411;DHT22;2218;51.408;7.208;2023-08-20T00:33:08;23.70;65.40
4411;DHT22;2218;51.408;7.208;2023-08-20T00:35:36;23.70;65.50
4411;DHT22;2218;51.408;7.208;2023-08-20T00:38:03;23.70;65.40
4411;DHT22;2218;51.408;7.208;2023-08-20T00:40:32;23.70;65.40
4411;DHT22;2218;51.408;7.208;2023-08-20T00:42:59;23.70;65.40
4411;DHT22;2218;51.408;7.208;2023-08-20T00:45:27;23.70;65.50
4411;DHT22;2218;51.408;7.208;2023-08-20T00:47:54;23.70;65.50
4411;DHT22;2218;51.408;7.208;2023-08-20T00:50:21;23.70;65.40
4411;DHT22;2218;51.408;7.208;2023-08-20T00:52:50;23.70;65.40
4411;DHT22;2218;51.408;7.208;2023-08-20T00:55:17;23.70;65.40
4411;DHT22;2218;51.408;7.208;2023-08-20T00:57:44;23.70;65.50
4411;DHT22;2218;51.408;7.208;2023-08-20T01:00:11;23.70;65.40
4411;DHT22;2218;51.408;7.208;2023-08-20T01:02:39;23.70;65.50
4411;DHT22;2218;51.408;7.208;2023-08-20T01:05:08;23.70;65.40
4411;DHT22;2218;51.408;7.208;2023-08-20T01:07:47;23.70;65.50
4411;DHT22;2218;51.408;7.208;2023-08-20T01:10:30;23.70;65.40
4411;DHT22;2218;51.408;7.208;2023-08-20T01:13:06;23.70;65.50
4411;DHT22;2218;51.408;7.208;2023-08-20T01:15:34;23.70;65.50
4411;DHT22;2218;51.408;7.208;2023-08-20T01:18:01;23.70;65.50
4411;DHT22;2218;51.408;7.208;2023-08-20T01:20:34;23.70;65.50
4411;DHT22;2218;51.408;7.208;2023-08-20T01:26:56;23.70;65.50
4411;DHT22;2218;51.408;7.208;2023-08-20T01:29:35;23.70;65.50
4411;DHT22;2218;51.408;7.208;2023-08-20T01:32:04;23.70;65.50
4411;DHT22;2218;51.408;7.208;2023-08-20T01:34:32;23.70;65.50
4411;DHT22;2218;51.408;7.208;2023-08-20T01:37:00;23.70;65.50
4411;DHT22;2218;51.408;7.208;2023-08-20T01:39:27;23.70;65.50
4411;DHT22;2218;51.408;7.208;2023-08-20T01:41:54;23.70;65.60
4411;DHT22;2218;51.408;7.208;2023-08-20T01:44:20;23.70;65.50
4411;DHT22;2218;51.408;7.208;2023-08-20T01:46:49;23.70;65.50
4411;DHT22;2218;51.408;7.208;2023-08-20T01:49:16;23.70;65.50
4411;DHT22;2218;51.408;7.208;2023-08-20T01:51:43;23.70;65.50
4411;DHT22;2218;51.408;7.208;2023-08-20T01:54:10;23.70;65.50
4411;DHT22;2218;51.408;7.208;2023-08-20T01:56:37;23.70;65.50
4411;DHT22;2218;51.408;7.208;2023-08-20T01:59:04;23.70;65.60
4411;DHT22;2218;51.408;7.208;2023-08-20T02:01:31;23.60;65.40
4411;DHT22;2218;51.408;7.208;2023-08-20T02:03:59;23.60;65.50
4411;DHT22;2218;51.408;7.208;2023-08-20T02:06:28;23.60;65.40
4411;DHT22;2218;51.408;7.208;2023-08-20T02:08:55;23.70;65.50
4411;DHT22;2218;51.408;7.208;2023-08-20T02:11:23;23.70;65.50
4411;DHT22;2218;51.408;7.208;2023-08-20T02:13:50;23.60;65.40
4411;DHT22;2218;51.408;7.208;2023-08-20T02:16:17;23.60;65.40
4411;DHT22;2218;51.408;7.208;2023-08-20T02:18:44;23.60;65.40
4411;DHT22;2218;51.408;7.208;2023-08-20T02:21:12;23.60;65.40
4411;DHT22;2218;51.408;7.208;2023-08-20T02:23:39;23.60;65.50
4411;DHT22;2218;51.408;7.208;2023-08-20T02:26:06;23.60;65.40
4411;DHT22;2218;51.408;7.208;2023-08-20T02:28:34;23.60;65.40
4411;DHT22;2218;51.408;7.208;2023-08-20T02:31:03;23.60;65.40
4411;DHT22;2218;51.408;7.208;2023-08-20T02:33:31;23.60;65.50
4411;DHT22;2218;51.408;7.208;2023-08-20T02:36:01;23.60;65.40
4411;DHT22;2218;51.408;7.208;2023-08-20T02:38:30;23.60;65.50
4411;DHT22;2218;51.408;7.208;2023-08-20T02:40:57;23.60;65.50
4411;DHT22;2218;51.408;7.208;2023-08-20T02:43:24;23.60;65.50
4411;DHT22;2218;51.408;7.208;2023-08-20T02:45:51;23.60;65.50
4411;DHT22;2218;51.408;7.208;2023-08-20T02:48:19;23.60;65.50
4411;DHT22;2218;51.408;7.208;2023-08-20T02:50:46;23.60;65.50
4411;DHT22;2218;51.408;7.208;2023-08-20T02:53:13;23.70;65.60
4411;DHT22;2218;51.408;7.208;2023-08-20T02:55:41;23.60;65.50
4411;DHT22;2218;51.408;7.208;2023-08-20T02:58:08;23.60;65.50
4411;DHT22;2218;51.408;7.208;2023-08-20T03:00:36;23.60;65.50
4411;DHT22;2218;51.408;7.208;2023-08-20T03:03:04;23.60;65.60
4411;DHT22;2218;51.408;7.208;2023-08-20T03:05:34;23.60;65.50
4411;DHT22;2218;51.408;7.208;2023-08-20T03:08:01;23.60;65.60
4411;DHT22;2218;51.408;7.208;2023-08-20T03:10:29;23.60;65.50
4411;DHT22;2218;51.408;7.208;2023-08-20T03:12:58;23.60;65.60
4411;DHT22;2218;51.408;7.208;2023-08-20T03:15:26;23.60;65.50
4411;DHT22;2218;51.408;7.208;2023-08-20T03:17:53;23.60;65.50
4411;DHT22;2218;51.408;7.208;2023-08-20T03:20:20;23.60;65.50
4411;DHT22;2218;51.408;7.208;2023-08-20T03:22:48;23.60;65.50
4411;DHT22;2218;51.408;7.208;2023-08-20T03:25:15;23.60;65.50
4411;DHT22;2218;51.408;7.208;2023-08-20T03:27:42;23.60;65.50
4411;DHT22;2218;51.408;7.208;2023-08-20T03:30:11;23.60;65.50
4411;DHT22;2218;51.408;7.208;2023-08-20T03:32:39;23.60;65.50
4411;DHT22;2218;51.408;7.208;2023-08-20T03:35:07;23.60;65.50
4411;DHT22;2218;51.408;7.208;2023-08-20T03:37:37;23.60;65.50
4411;DHT22;2218;51.408;7.208;2023-08-20T03:40:04;23.60;65.50
4411;DHT22;2218;51.408;7.208;2023-08-20T03:42:32;23.60;65.50
4411;DHT22;2218;51.408;7.208;2023-08-20T03:44:59;23.60;65.50
4411;DHT22;2218;51.408;7.208;2023-08-20T03:47:27;23.60;65.50
4411;DHT22;2218;51.408;7.208;2023-08-20T03:49:55;23.60;65.60
4411;DHT22;2218;51.408;7.208;2023-08-20T03:52:22;23.60;65.60
4411;DHT22;2218;51.408;7.208;2023-08-20T03:54:49;23.60;65.60
4411;DHT22;2218;51.408;7.208;2023-08-20T03:57:16;23.60;65.60
4411;DHT22;2218;51.408;7.208;2023-08-20T03:59:44;23.60;65.60
4411;DHT22;2218;51.408;7.208;2023-08-20T04:02:13;23.60;65.60
4411;DHT22;2218;51.408;7.208;2023-08-20T04:04:41;23.60;65.60
4411;DHT22;2218;51.408;7.208;2023-08-20T04:07:08;23.60;65.60
4411;DHT22;2218;51.408;7.208;2023-08-20T04:09:35;23.60;65.60
4411;DHT22;2218;51.408;7.208;2023-08-20T04:12:05;23.60;65.60
4411;DHT22;2218;51.408;7.208;2023-08-20T04:14:33;23.60;65.60
4411;DHT22;2218;51.408;7.208;2023-08-20T04:17:00;23.60;65.60
4411;DHT22;2218;51.408;7.208;2023-08-20T04:19:27;23.60;65.60
4411;DHT22;2218;51.408;7.208;2023-08-20T04:21:55;23.60;66.30
4411;DHT22;2218;51.408;7.208;2023-08-20T04:24:22;23.60;65.50
4411;DHT22;2218;51.408;7.208;2023-08-20T04:26:49;23.60;65.60
4411;DHT22;2218;51.408;7.208;2023-08-20T04:29:22;23.60;65.60
4411;DHT22;2218;51.408;7.208;2023-08-20T04:31:49;23.60;65.60
4411;DHT22;2218;51.408;7.208;2023-08-20T04:34:18;23.60;65.60
4411;DHT22;2218;51.408;7.208;2023-08-20T04:36:49;23.60;65.60
4411;DHT22;2218;51.408;7.208;2023-08-20T04:39:18;23.60;65.60
4411;DHT22;2218;51.408;7.208;2023-08-20T04:41:49;23.60;65.60
4411;DHT22;2218;51.408;7.208;2023-08-20T04:44:18;23.60;65.60
4411;DHT22;2218;51.408;7.208;2023-08-20T04:46:46;23.60;65.60
4411;DHT22;2218;51.408;7.208;2023-08-20T04:49:13;23.60;65.60
4411;DHT22;2218;51.408;7.208;2023-08-20T04:51:40;23.60;65.60
4411;DHT22;2218;51.408;7.208;2023-08-20T04:54:07;23.60;65.60
4411;DHT22;2218;51.408;7.208;2023-08-20T04:56:35;23.60;65.70
4411;DHT22;2218;51.408;7.208;2023-08-20T04:59:02;23.60;65.60
4411;DHT22;2218;51.408;7.208;2023-08-20T05:02:08;23.60;65.70
4411;DHT22;2218;51.408;7.208;2023-08-20T05:04:49;23.60;65.60
4411;DHT22;2218;51.408;7.208;2023-08-20T05:07:17;23.50;65.60
4411;DHT22;2218;51.408;7.208;2023-08-20T05:09:44;23.50;65.50
4411;DHT22;2218;51.408;7.208;2023-08-20T05:12:12;23.50;66.20
4411;DHT22;2218;51.408;7.208;2023-08-20T05:14:39;23.50;65.60
4411;DHT22;2218;51.408;7.208;2023-08-20T05:17:06;23.50;65.60
4411;DHT22;2218;51.408;7.208;2023-08-20T05:19:33;23.50;65.60
4411;DHT22;2218;51.408;7.208;2023-08-20T05:22:00;23.50;65.60
4411;DHT22;2218;51.408;7.208;2023-08-20T05:24:31;23.50;65.60
4411;DHT22;2218;51.408;7.208;2023-08-20T05:27:06;23.50;65.60
4411;DHT22;2218;51.408;7.208;2023-08-20T05:29:36;23.50;65.60
4411;DHT22;2218;51.408;7.208;2023-08-20T05:32:04;23.50;65.60
4411;DHT22;2218;51.408;7.208;2023-08-20T05:34:32;23.50;65.60
4411;DHT22;2218;51.408;7.208;2023-08-20T05:36:59;23.50;65.60
4411;DHT22;2218;51.408;7.208;2023-08-20T05:39:30;23.50;65.60
4411;DHT22;2218;51.408;7.208;2023-08-20T05:42:03;23.50;65.60
4411;DHT22;2218;51.408;7.208;2023-08-20T05:44:31;23.50;65.60
4411;DHT22;2218;51.408;7.208;2023-08-20T05:46:59;23.50;65.60
4411;DHT22;2218;51.408;7.208;2023-08-20T05:49:27;23.60;65.70
4411;DHT22;2218;51.408;7.208;2023-08-20T05:51:54;23.50;65.60
4411;DHT22;2218;51.408;7.208;2023-08-20T05:54:21;23.50;65.60
4411;DHT22;2218;51.408;7.208;2023-08-20T05:56:51;23.50;65.60
4411;DHT22;2218;51.408;7.208;2023-08-20T05:59:19;23.60;65.80
4411;DHT22;2218;51.408;7.208;2023-08-20T06:01:46;23.60;65.80
4411;DHT22;2218;51.408;7.208;2023-08-20T06:04:14;23.60;65.70
4411;DHT22;2218;51.408;7.208;2023-08-20T06:06:41;23.60;65.70
4411;DHT22;2218;51.408;7.208;2023-08-20T06:09:08;23.60;65.70
4411;DHT22;2218;51.408;7.208;2023-08-20T06:11:35;23.60;65.70
4411;DHT22;2218;51.408;7.208;2023-08-20T06:14:02;23.60;65.70
4411;DHT22;2218;51.408;7.208;2023-08-20T06:16:29;23.60;65.70
4411;DHT22;2218;51.408;7.208;2023-08-20T06:18:57;23.60;65.60
4411;DHT22;2218;51.408;7.208;2023-08-20T06:21:26;23.60;65.40
4411;DHT22;2218;51.408;7.208;2023-08-20T06:23:53;23.60;65.40
4411;DHT22;2218;51.408;7.208;2023-08-20T06:26:20;23.60;65.40
4411;DHT22;2218;51.408;7.208;2023-08-20T06:28:47;23.60;65.40
4411;DHT22;2218;51.408;7.208;2023-08-20T06:31:13;23.60;65.30
4411;DHT22;2218;51.408;7.208;2023-08-20T06:33:40;23.70;65.30
4411;DHT22;2218;51.408;7.208;2023-08-20T06:36:07;23.70;65.20
4411;DHT22;2218;51.408;7.208;2023-08-20T06:38:35;23.70;65.10
4411;DHT22;2218;51.408;7.208;2023-08-20T06:41:02;23.70;65.20
4411;DHT22;2218;51.408;7.208;2023-08-20T06:43:29;23.70;65.20
4411;DHT22;2218;51.408;7.208;2023-08-20T06:45:56;23.70;65.20
4411;DHT22;2218;51.408;7.208;2023-08-20T06:48:24;23.70;65.10
4411;DHT22;2218;51.408;7.208;2023-08-20T06:50:52;23.80;65.20
4411;DHT22;2218;51.408;7.208;2023-08-20T06:53:18;23.80;65.20
4411;DHT22;2218;51.408;7.208;2023-08-20T06:55:47;23.80;65.20
4411;DHT22;2218;51.408;7.208;2023-08-20T06:58:13;23.80;65.10
4411;DHT22;2218;51.408;7.208;2023-08-20T07:00:40;23.80;65.10
4411;DHT22;2218;51.408;7.208;2023-08-20T07:03:07;23.80;65.10
4411;DHT22;2218;51.408;7.208;2023-08-20T07:05:34;23.80;65.10
4411;DHT22;2218;51.408;7.208;2023-08-20T07:08:01;23.80;65.10
4411;DHT22;2218;51.408;7.208;2023-08-20T07:10:28;23.90;65.20
4411;DHT22;2218;51.408;7.208;2023-08-20T07:12:56;23.90;65.20
4411;DHT22;2218;51.408;7.208;2023-08-20T07:15:23;23.90;65.10
4411;DHT22;2218;51.408;7.208;2023-08-20T07:17:50;23.90;65.10
4411;DHT22;2218;51.408;7.208;2023-08-20T07:20:17;23.90;65.10
4411;DHT22;2218;51.408;7.208;2023-08-20T07:22:44;23.90;65.20
4411;DHT22;2218;51.408;7.208;2023-08-20T07:25:11;23.90;65.20
4411;DHT22;2218;51.408;7.208;2023-08-20T07:27:38;23.90;65.20
4411;DHT22;2218;51.408;7.208;2023-08-20T07:30:07;23.90;65.80
4411;DHT22;2218;51.408;7.208;2023-08-20T07:32:34;23.90;65.10
4411;DHT22;2218;51.408;7.208;2023-08-20T07:35:01;23.90;65.80
4411;DHT22;2218;51.408;7.208;2023-08-20T07:37:28;23.90;65.10
4411;DHT22;2218;51.408;7.208;2023-08-20T07:39:55;23.90;65.10
4411;DHT22;2218;51.408;7.208;2023-08-20T07:42:22;24.00;65.20
4411;DHT22;2218;51.408;7.208;2023-08-20T07:44:49;24.00;65.20
4411;DHT22;2218;51.408;7.208;2023-08-20T07:47:17;24.00;65.20
4411;DHT22;2218;51.408;7.208;2023-08-20T07:49:44;24.00;65.20
4411;DHT22;2218;51.408;7.208;2023-08-20T07:52:11;24.00;65.20
4411;DHT22;2218;51.408;7.208;2023-08-20T07:54:37;24.00;65.10
4411;DHT22;2218;51.408;7.208;2023-08-20T07:57:04;24.00;65.20
4411;DHT22;2218;51.408;7.208;2023-08-20T07:59:31;24.00;65.20
4411;DHT22;2218;51.408;7.208;2023-08-20T08:01:58;24.00;65.20
4411;DHT22;2218;51.408;7.208;2023-08-20T08:04:28;24.00;65.20
4411;DHT22;2218;51.408;7.208;2023-08-20T08:06:55;24.00;65.20
4411;DHT22;2218;51.408;7.208;2023-08-20T08:09:27;24.00;65.20
4411;DHT22;2218;51.408;7.208;2023-08-20T08:11:54;24.00;65.20
4411;DHT22;2218;51.408;7.208;2023-08-20T08:14:22;24.00;65.20
4411;DHT22;2218;51.408;7.208;2023-08-20T08:16:49;24.10;65.40
4411;DHT22;2218;51.408;7.208;2023-08-20T08:19:16;24.10;65.40
4411;DHT22;2218;51.408;7.208;2023-08-20T08:21:47;24.10;65.40
4411;DHT22;2218;51.408;7.208;2023-08-20T08:24:14;24.10;65.30
4411;DHT22;2218;51.408;7.208;2023-08-20T08:26:42;24.10;65.30
4411;DHT22;2218;51.408;7.208;2023-08-20T08:29:08;24.10;65.40
4411;DHT22;2218;51.408;7.208;2023-08-20T08:31:36;24.10;65.40
4411;DHT22;2218;51.408;7.208;2023-08-20T08:34:03;24.10;65.40
4411;DHT22;2218;51.408;7.208;2023-08-20T08:36:30;24.10;66.00
4411;DHT22;2218;51.408;7.208;2023-08-20T08:38:58;24.10;65.40
4411;DHT22;2218;51.408;7.208;2023-08-20T08:41:26;24.10;65.40
4411;DHT22;2218;51.408;7.208;2023-08-20T08:43:55;24.10;65.40
4411;DHT22;2218;51.408;7.208;2023-08-20T08:46:24;24.10;65.40
4411;DHT22;2218;51.408;7.208;2023-08-20T08:48:52;24.10;65.40
4411;DHT22;2218;51.408;7.208;2023-08-20T08:51:20;24.10;65.40
4411;DHT22;2218;51.408;7.208;2023-08-20T08:53:47;24.10;65.40
4411;DHT22;2218;51.408;7.208;2023-08-20T08:56:15;24.10;65.30
4411;DHT22;2218;51.408;7.208;2023-08-20T08:58:42;24.10;65.40
4411;DHT22;2218;51.408;7.208;2023-08-20T09:01:09;24.10;66.10
4411;DHT22;2218;51.408;7.208;2023-08-20T09:03:36;24.10;65.40
4411;DHT22;2218;51.408;7.208;2023-08-20T09:06:08;24.10;65.40
4411;DHT22;2218;51.408;7.208;2023-08-20T09:08:36;24.10;65.40
4411;DHT22;2218;51.408;7.208;2023-08-20T09:11:03;24.10;65.20
4411;DHT22;2218;51.408;7.208;2023-08-20T09:13:36;24.10;65.30
4411;DHT22;2218;51.408;7.208;2023-08-20T09:16:05;24.10;65.30
4411;DHT22;2218;51.408;7.208;2023-08-20T09:18:37;24.10;65.20
4411;DHT22;2218;51.408;7.208;2023-08-20T09:21:06;24.10;65.30
4411;DHT22;2218;51.408;7.208;2023-08-20T09:23:33;24.10;65.30
4411;DHT22;2218;51.408;7.208;2023-08-20T09:26:01;24.20;65.40
4411;DHT22;2218;51.408;7.208;2023-08-20T09:28:30;24.20;65.30
4411;DHT22;2218;51.408;7.208;2023-08-20T09:31:09;24.20;65.40
4411;DHT22;2218;51.408;7.208;2023-08-20T09:33:48;24.20;65.20
4411;DHT22;2218;51.408;7.208;2023-08-20T09:36:17;24.20;65.30
4411;DHT22;2218;51.408;7.208;2023-08-20T09:38:44;24.20;65.20
4411;DHT22;2218;51.408;7.208;2023-08-20T09:41:12;24.20;65.20
4411;DHT22;2218;51.408;7.208;2023-08-20T09:43:39;24.20;65.30
4411;DHT22;2218;51.408;7.208;2023-08-20T09:46:10;24.20;65.30
4411;DHT22;2218;51.408;7.208;2023-08-20T09:48:41;24.20;65.20
4411;DHT22;2218;51.408;7.208;2023-08-20T09:51:14;24.20;65.40
4411;DHT22;2218;51.408;7.208;2023-08-20T09:53:51;24.20;65.40
4411;DHT22;2218;51.408;7.208;2023-08-20T09:56:27;24.20;65.40
4411;DHT22;2218;51.408;7.208;2023-08-20T09:58:57;24.20;65.30
4411;DHT22;2218;51.408;7.208;2023-08-20T10:01:25;24.20;65.30
4411;DHT22;2218;51.408;7.208;2023-08-20T10:03:53;24.20;65.30
4411;DHT22;2218;51.408;7.208;2023-08-20T10:06:21;24.20;65.30
4411;DHT22;2218;51.408;7.208;2023-08-20T10:08:50;24.20;65.30
4411;DHT22;2218;51.408;7.208;2023-08-20T10:11:17;24.20;65.30
4411;DHT22;2218;51.408;7.208;2023-08-20T10:13:44;24.20;65.30
4411;DHT22;2218;51.408;7.208;2023-08-20T10:16:13;24.20;65.20
4411;DHT22;2218;51.408;7.208;2023-08-20T10:18:45;24.20;65.20
4411;DHT22;2218;51.408;7.208;2023-08-20T10:21:13;24.30;65.40
4411;DHT22;2218;51.408;7.208;2023-08-20T10:23:40;24.20;65.30
4411;DHT22;2218;51.408;7.208;2023-08-20T10:26:09;24.20;65.30
4411;DHT22;2218;51.408;7.208;2023-08-20T10:28:37;24.30;65.30
4411;DHT22;2218;51.408;7.208;2023-08-20T10:31:06;24.20;65.20
4411;DHT22;2218;51.408;7.208;2023-08-20T10:33:37;24.20;65.30
4411;DHT22;2218;51.408;7.208;2023-08-20T10:36:10;24.20;65.20
4411;DHT22;2218;51.408;7.208;2023-08-20T10:38:39;24.20;65.20
4411;DHT22;2218;51.408;7.208;2023-08-20T10:41:07;24.30;65.20
4411;DHT22;2218;51.408;7.208;2023-08-20T10:43:35;24.20;65.20
4411;DHT22;2218;51.408;7.208;2023-08-20T10:46:10;24.20;65.20
4411;DHT22;2218;51.408;7.208;2023-08-20T10:48:46;24.30;65.30
4411;DHT22;2218;51.408;7.208;2023-08-20T10:51:15;24.30;65.30
4411;DHT22;2218;51.408;7.208;2023-08-20T10:53:48;24.30;65.30
4411;DHT22;2218;51.408;7.208;2023-08-20T10:56:38;24.30;65.30
4411;DHT22;2218;51.408;7.208;2023-08-20T10:59:07;24.30;65.30
4411;DHT22;2218;51.408;7.208;2023-08-20T11:01:35;24.30;65.20
4411;DHT22;2218;51.408;7.208;2023-08-20T11:04:05;24.30;65.30
4411;DHT22;2218;51.408;7.208;2023-08-20T11:06:33;24.30;65.30
4411;DHT22;2218;51.408;7.208;2023-08-20T11:09:01;24.30;65.20
4411;DHT22;2218;51.408;7.208;2023-08-20T11:11:31;24.30;65.20
4411;DHT22;2218;51.408;7.208;2023-08-20T11:14:04;24.30;65.20
4411;DHT22;2218;51.408;7.208;2023-08-20T11:16:33;24.30;65.20
4411;DHT22;2218;51.408;7.208;2023-08-20T11:19:01;24.30;65.20
4411;DHT22;2218;51.408;7.208;2023-08-20T11:21:32;24.30;65.20
4411;DHT22;2218;51.408;7.208;2023-08-20T11:24:00;24.30;65.20
4411;DHT22;2218;51.408;7.208;2023-08-20T11:26:27;24.30;65.20
4411;DHT22;2218;51.408;7.208;2023-08-20T11:28:54;24.30;65.20
4411;DHT22;2218;51.408;7.208;2023-08-20T11:31:21;24.30;65.20
4411;DHT22;2218;51.408;7.208;2023-08-20T11:33:49;24.30;65.20
4411;DHT22;2218;51.408;7.208;2023-08-20T11:36:17;24.30;65.20
4411;DHT22;2218;51.408;7.208;2023-08-20T11:38:50;24.30;65.20
4411;DHT22;2218;51.408;7.208;2023-08-20T11:41:18;24.30;65.20
4411;DHT22;2218;51.408;7.208;2023-08-20T11:43:46;24.30;65.10
4411;DHT22;2218;51.408;7.208;2023-08-20T11:46:13;24.30;65.20
4411;DHT22;2218;51.408;7.208;2023-08-20T11:48:59;24.30;65.20
4411;DHT22;2218;51.408;7.208;2023-08-20T11:51:27;24.30;65.10
4411;DHT22;2218;51.408;7.208;2023-08-20T11:53:55;24.30;65.20
4411;DHT22;2218;51.408;7.208;2023-08-20T11:56:23;24.30;65.20
4411;DHT22;2218;51.408;7.208;2023-08-20T11:58:50;24.30;65.10
4411;DHT22;2218;51.408;7.208;2023-08-20T12:01:18;24.30;65.10
4411;DHT22;2218;51.408;7.208;2023-08-20T12:03:45;24.30;65.10
4411;DHT22;2218;51.408;7.208;2023-08-20T12:06:19;24.30;65.10
4411;DHT22;2218;51.408;7.208;2023-08-20T12:08:48;24.30;65.10
4411;DHT22;2218;51.408;7.208;2023-08-20T12:11:16;24.30;65.10
4411;DHT22;2218;51.408;7.208;2023-08-20T12:13:43;24.30;65.10
4411;DHT22;2218;51.408;7.208;2023-08-20T12:16:10;24.30;65.10
4411;DHT22;2218;51.408;7.208;2023-08-20T12:18:37;24.30;65.10
4411;DHT22;2218;51.408;7.208;2023-08-20T12:21:04;24.30;65.10
4411;DHT22;2218;51.408;7.208;2023-08-20T12:23:31;24.30;65.10
4411;DHT22;2218;51.408;7.208;2023-08-20T12:25:58;24.30;65.10
4411;DHT22;2218;51.408;7.208;2023-08-20T12:28:27;24.30;65.10
4411;DHT22;2218;51.408;7.208;2023-08-20T12:30:54;24.40;65.10
4411;DHT22;2218;51.408;7.208;2023-08-20T12:33:21;24.30;65.10
4411;DHT22;2218;51.408;7.208;2023-08-20T12:35:47;24.30;65.10
4411;DHT22;2218;51.408;7.208;2023-08-20T12:38:15;24.40;65.10
4411;DHT22;2218;51.408;7.208;2023-08-20T12:40:42;24.40;65.10
4411;DHT22;2218;51.408;7.208;2023-08-20T12:43:09;24.40;65.10
4411;DHT22;2218;51.408;7.208;2023-08-20T12:45:37;24.40;65.10
4411;DHT22;2218;51.408;7.208;2023-08-20T12:48:05;24.40;65.10
4411;DHT22;2218;51.408;7.208;2023-08-20T12:50:32;24.40;65.10
4411;DHT22;2218;51.408;7.208;2023-08-20T12:52:59;24.40;65.00
4411;DHT22;2218;51.408;7.208;2023-08-20T12:55:26;24.40;65.00
4411;DHT22;2218;51.408;7.208;2023-08-20T12:57:54;24.40;65.00
4411;DHT22;2218;51.408;7.208;2023-08-20T13:00:22;24.40;65.00
4411;DHT22;2218;51.408;7.208;2023-08-20T13:02:53;24.40;65.00
4411;DHT22;2218;51.408;7.208;2023-08-20T13:05:22;24.40;65.00
4411;DHT22;2218;51.408;7.208;2023-08-20T13:07:51;24.40;65.00
4411;DHT22;2218;51.408;7.208;2023-08-20T13:10:19;24.40;65.00
4411;DHT22;2218;51.408;7.208;2023-08-20T13:12:50;24.40;65.00
4411;DHT22;2218;51.408;7.208;2023-08-20T13:15:20;24.40;65.00
4411;DHT22;2218;51.408;7.208;2023-08-20T13:17:49;24.40;65.00
4411;DHT22;2218;51.408;7.208;2023-08-20T13:20:18;24.40;65.00
4411;DHT22;2218;51.408;7.208;2023-08-20T13:22:48;24.40;65.00
4411;DHT22;2218;51.408;7.208;2023-08-20T13:25:16;24.40;64.90
4411;DHT22;2218;51.408;7.208;2023-08-20T13:27:43;24.40;64.90
4411;DHT22;2218;51.408;7.208;2023-08-20T13:30:11;24.40;64.90
4411;DHT22;2218;51.408;7.208;2023-08-20T13:32:38;24.40;64.90
4411;DHT22;2218;51.408;7.208;2023-08-20T13:35:05;24.40;64.90
4411;DHT22;2218;51.408;7.208;2023-08-20T13:37:34;24.40;65.50
4411;DHT22;2218;51.408;7.208;2023-08-20T13:40:02;24.40;64.90
4411;DHT22;2218;51.408;7.208;2023-08-20T13:42:30;24.40;64.80
4411;DHT22;2218;51.408;7.208;2023-08-20T13:44:57;24.40;64.80
4411;DHT22;2218;51.408;7.208;2023-08-20T13:47:24;24.40;64.80
4411;DHT22;2218;51.408;7.208;2023-08-20T13:49:50;24.40;64.80
4411;DHT22;2218;51.408;7.208;2023-08-20T13:52:17;24.40;64.80
4411;DHT22;2218;51.408;7.208;2023-08-20T13:54:46;24.40;64.80
4411;DHT22;2218;51.408;7.208;2023-08-20T13:57:13;24.50;64.90
4411;DHT22;2218;51.408;7.208;2023-08-20T13:59:40;24.40;64.70
4411;DHT22;2218;51.408;7.208;2023-08-20T14:02:06;24.50;64.80
4411;DHT22;2218;51.408;7.208;2023-08-20T14:04:35;24.50;64.80
4411;DHT22;2218;51.408;7.208;2023-08-20T14:07:02;24.50;64.80
4411;DHT22;2218;51.408;7.208;2023-08-20T14:09:29;24.50;64.80
4411;DHT22;2218;51.408;7.208;2023-08-20T14:11:57;24.50;64.80
4411;DHT22;2218;51.408;7.208;2023-08-20T14:14:24;24.50;64.80
4411;DHT22;2218;51.408;7.208;2023-08-20T14:16:51;24.50;64.80
4411;DHT22;2218;51.408;7.208;2023-08-20T14:19:18;24.50;64.70
4411;DHT22;2218;51.408;7.208;2023-08-20T14:21:45;24.50;64.70
4411;DHT22;2218;51.408;7.208;2023-08-20T14:24:12;24.50;64.70
4411;DHT22;2218;51.408;7.208;2023-08-20T14:26:39;24.50;64.70
4411;DHT22;2218;51.408;7.208;2023-08-20T14:29:07;24.50;64.70
4411;DHT22;2218;51.408;7.208;2023-08-20T14:31:34;24.50;64.70
4411;DHT22;2218;51.408;7.208;2023-08-20T14:34:01;24.50;64.70
4411;DHT22;2218;51.408;7.208;2023-08-20T14:36:28;24.50;64.70
4411;DHT22;2218;51.408;7.208;2023-08-20T14:38:55;24.50;64.70
4411;DHT22;2218;51.408;7.208;2023-08-20T14:41:22;24.50;64.70
4411;DHT22;2218;51.408;7.208;2023-08-20T14:43:49;24.50;64.70
4411;DHT22;2218;51.408;7.208;2023-08-20T14:46:17;24.50;64.70
4411;DHT22;2218;51.408;7.208;2023-08-20T14:48:44;24.50;64.70
4411;DHT22;2218;51.408;7.208;2023-08-20T14:51:11;24.50;64.60
4411;DHT22;2218;51.408;7.208;2023-08-20T14:53:38;24.50;64.60
4411;DHT22;2218;51.408;7.208;2023-08-20T14:56:05;24.50;64.60
4411;DHT22;2218;51.408;7.208;2023-08-20T14:58:32;24.50;64.50
4411;DHT22;2218;51.408;7.208;2023-08-20T15:00:59;24.50;64.50
4411;DHT22;2218;51.408;7.208;2023-08-20T15:03:27;24.50;64.50
4411;DHT22;2218;51.408;7.208;2023-08-20T15:05:54;24.50;64.50
4411;DHT22;2218;51.408;7.208;2023-08-20T15:08:21;24.50;64.50
4411;DHT22;2218;51.408;7.208;2023-08-20T15:10:56;24.50;64.50
4411;DHT22;2218;51.408;7.208;2023-08-20T15:13:24;24.50;64.50
4411;DHT22;2218;51.408;7.208;2023-08-20T15:15:51;24.50;64.50
4411;DHT22;2218;51.408;7.208;2023-08-20T15:18:19;24.50;64.50
4411;DHT22;2218;51.408;7.208;2023-08-20T15:20:53;24.50;64.40
4411;DHT22;2218;51.408;7.208;2023-08-20T15:23:22;24.50;64.40
4411;DHT22;2218;51.408;7.208;2023-08-20T15:25:51;24.50;64.40
4411;DHT22;2218;51.408;7.208;2023-08-20T15:28:19;24.50;64.40
4411;DHT22;2218;51.408;7.208;2023-08-20T15:30:46;24.50;64.30
4411;DHT22;2218;51.408;7.208;2023-08-20T15:33:13;24.50;64.40
4411;DHT22;2218;51.408;7.208;2023-08-20T15:35:40;24.50;64.30
4411;DHT22;2218;51.408;7.208;2023-08-20T15:38:08;24.60;64.40
4411;DHT22;2218;51.408;7.208;2023-08-20T15:40:36;24.50;64.30
4411;DHT22;2218;51.408;7.208;2023-08-20T15:43:04;24.50;64.30
4411;DHT22;2218;51.408;7.208;2023-08-20T15:45:31;24.60;64.30
4411;DHT22;2218;51.408;7.208;2023-08-20T15:47:58;24.50;64.20
4411;DHT22;2218;51.408;7.208;2023-08-20T15:50:25;24.50;64.20
4411;DHT22;2218;51.408;7.208;2023-08-20T15:52:53;24.50;64.20
4411;DHT22;2218;51.408;7.208;2023-08-20T15:55:22;24.50;64.20
4411;DHT22;2218;51.408;7.208;2023-08-20T15:57:49;24.50;64.20
4411;DHT22;2218;51.408;7.208;2023-08-20T16:00:16;24.60;64.30
4411;DHT22;2218;51.408;7.208;2023-08-20T16:02:45;24.50;64.20
4411;DHT22;2218;51.408;7.208;2023-08-20T16:05:12;24.50;64.10
4411;DHT22;2218;51.408;7.208;2023-08-20T16:07:40;24.60;64.20
4411;DHT22;2218;51.408;7.208;2023-08-20T16:10:08;24.50;64.00
4411;DHT22;2218;51.408;7.208;2023-08-20T16:12:37;24.50;64.10